Pagrindinis puslapis
METAR-TAF:

METAR-TAF

Oro uostai :

Gove Peninsula, Australija

platuma: 12-16-12S, ilguma: 136-49-06E, Aukštis: 62 m

Dabartinis oras

Ataskaita buvo paskelbta 38 minutes, ne 05:00 UTC
Vėjas 13 kt iš Rytų
Temperatūra 28°C
Drėgmė 66%
Slėgis 1014 hPa
Matomumas 10 km arba daugiau
Su prošvaistėmis ne aukštis 2200 ft

METAR: YPGV 210500Z AUTO 09013KT 9999 // BKN022 28/21 Q1014

Laikas: 15:08 (05:38 UTC)

Prognozė

Ataskaita buvo paskelbta 5 valandos ir 1 minutes, ne 00:37 UTC
Prognozė galioja nuo 21 metu 02 UTC su 21 metu 14 UTC
Vėjas 12 kt iš Rytų
Matomumas 10 km arba daugiau
Su prošvaistėmis ne aukštis 2000 ft
Nuo 21 metu 0800 UTC
Vėjas 5 kt iš Pietryčių
Matomumas 10 km arba daugiau
Mažai debesys ne aukštis 2000 ft

TAF: YPGV 210037Z 2102/2114 09012KT 9999 BKN020 FM210800 13005KT 9999 FEW020

Orai ataskaitas ir orų prognozės (METAR, TAF).

turimą stotys yra geltonos ir raudonos taškus žemėlapyje.

Perkelti pele per norėdami pamatyti stoties vardą.

Tada spustelėkite, norėdami matyti oro stebėjimo ir prognozės.

Norėdami pakeisti žemėlapį: spustelėkite ant žalios mygtukų su juodo kryžiaus žemyn,; žalią mygtuką su brūkšneliu, jei norite nutolinti; arba žalių rodyklių gretimoms žemėlapius.


METAR-TAF: